sensor_id;sensor_type;location;lat;lon;timestamp;P1;durP1;ratioP1;P2;durP2;ratioP2
18702;SDS011;9481;48.796;9.210;2023-02-26T00:02:23;4.07;;;1.60;;
18702;SDS011;9481;48.796;9.210;2023-02-26T00:04:49;3.03;;;1.43;;
18702;SDS011;9481;48.796;9.210;2023-02-26T00:07:14;1.83;;;1.40;;
18702;SDS011;9481;48.796;9.210;2023-02-26T00:09:40;2.50;;;1.23;;
18702;SDS011;9481;48.796;9.210;2023-02-26T00:12:06;1.40;;;1.30;;
18702;SDS011;9481;48.796;9.210;2023-02-26T00:14:35;3.17;;;1.50;;
18702;SDS011;9481;48.796;9.210;2023-02-26T00:19:49;2.67;;;1.53;;
18702;SDS011;9481;48.796;9.210;2023-02-26T00:22:15;4.00;;;1.80;;
18702;SDS011;9481;48.796;9.210;2023-02-26T00:24:40;2.33;;;1.70;;
18702;SDS011;9481;48.796;9.210;2023-02-26T00:27:06;2.87;;;1.43;;
18702;SDS011;9481;48.796;9.210;2023-02-26T00:29:35;2.47;;;1.60;;
18702;SDS011;9481;48.796;9.210;2023-02-26T00:32:02;2.50;;;1.43;;
18702;SDS011;9481;48.796;9.210;2023-02-26T00:34:29;4.17;;;1.70;;
18702;SDS011;9481;48.796;9.210;2023-02-26T00:37:02;3.20;;;1.57;;
18702;SDS011;9481;48.796;9.210;2023-02-26T00:40:07;4.03;;;1.80;;
18702;SDS011;9481;48.796;9.210;2023-02-26T00:43:00;4.03;;;1.73;;
18702;SDS011;9481;48.796;9.210;2023-02-26T00:45:31;2.40;;;1.40;;
18702;SDS011;9481;48.796;9.210;2023-02-26T00:48:15;4.10;;;1.60;;
18702;SDS011;9481;48.796;9.210;2023-02-26T00:50:54;2.27;;;1.70;;
18702;SDS011;9481;48.796;9.210;2023-02-26T00:53:33;2.37;;;1.50;;
18702;SDS011;9481;48.796;9.210;2023-02-26T00:56:10;2.37;;;1.57;;
18702;SDS011;9481;48.796;9.210;2023-02-26T00:58:37;3.70;;;1.93;;
18702;SDS011;9481;48.796;9.210;2023-02-26T01:01:03;2.60;;;1.63;;
18702;SDS011;9481;48.796;9.210;2023-02-26T01:03:30;3.50;;;2.00;;
18702;SDS011;9481;48.796;9.210;2023-02-26T01:05:57;2.83;;;1.73;;
18702;SDS011;9481;48.796;9.210;2023-02-26T01:08:26;4.37;;;1.47;;
18702;SDS011;9481;48.796;9.210;2023-02-26T01:11:01;5.60;;;1.87;;
18702;SDS011;9481;48.796;9.210;2023-02-26T01:13:27;2.60;;;1.70;;
18702;SDS011;9481;48.796;9.210;2023-02-26T01:15:54;4.13;;;1.90;;
18702;SDS011;9481;48.796;9.210;2023-02-26T01:18:47;3.83;;;1.90;;
18702;SDS011;9481;48.796;9.210;2023-02-26T01:21:27;3.67;;;1.77;;
18702;SDS011;9481;48.796;9.210;2023-02-26T01:23:58;2.80;;;1.70;;
18702;SDS011;9481;48.796;9.210;2023-02-26T01:26:29;3.53;;;1.60;;
18702;SDS011;9481;48.796;9.210;2023-02-26T01:28:55;3.53;;;1.57;;
18702;SDS011;9481;48.796;9.210;2023-02-26T01:31:37;3.20;;;1.77;;
18702;SDS011;9481;48.796;9.210;2023-02-26T01:34:34;2.40;;;1.80;;
18702;SDS011;9481;48.796;9.210;2023-02-26T01:38:00;2.87;;;1.73;;
18702;SDS011;9481;48.796;9.210;2023-02-26T01:43:50;3.63;;;1.80;;
18702;SDS011;9481;48.796;9.210;2023-02-26T01:49:50;3.60;;;1.50;;
18702;SDS011;9481;48.796;9.210;2023-02-26T01:55:17;4.67;;;1.97;;
18702;SDS011;9481;48.796;9.210;2023-02-26T01:57:48;3.97;;;1.60;;
18702;SDS011;9481;48.796;9.210;2023-02-26T02:00:17;2.60;;;1.47;;
18702;SDS011;9481;48.796;9.210;2023-02-26T02:02:43;5.00;;;1.90;;
18702;SDS011;9481;48.796;9.210;2023-02-26T02:05:17;4.63;;;1.73;;
18702;SDS011;9481;48.796;9.210;2023-02-26T02:08:09;3.83;;;1.80;;
18702;SDS011;9481;48.796;9.210;2023-02-26T02:10:39;4.20;;;1.60;;
18702;SDS011;9481;48.796;9.210;2023-02-26T02:13:26;2.20;;;1.27;;
18702;SDS011;9481;48.796;9.210;2023-02-26T02:31:05;3.73;;;1.97;;
18702;SDS011;9481;48.796;9.210;2023-02-26T02:33:51;3.27;;;1.80;;
18702;SDS011;9481;48.796;9.210;2023-02-26T02:36:36;6.33;;;1.47;;
18702;SDS011;9481;48.796;9.210;2023-02-26T02:39:32;3.53;;;1.50;;
18702;SDS011;9481;48.796;9.210;2023-02-26T02:44:36;2.50;;;1.57;;
18702;SDS011;9481;48.796;9.210;2023-02-26T02:47:08;3.50;;;1.77;;
18702;SDS011;9481;48.796;9.210;2023-02-26T02:49:38;3.07;;;1.60;;
18702;SDS011;9481;48.796;9.210;2023-02-26T02:52:19;3.23;;;1.87;;
18702;SDS011;9481;48.796;9.210;2023-02-26T02:55:06;4.10;;;1.40;;
18702;SDS011;9481;48.796;9.210;2023-02-26T02:57:42;3.57;;;1.47;;
18702;SDS011;9481;48.796;9.210;2023-02-26T03:00:35;4.23;;;1.80;;
18702;SDS011;9481;48.796;9.210;2023-02-26T03:03:15;3.17;;;1.40;;
18702;SDS011;9481;48.796;9.210;2023-02-26T03:05:54;3.63;;;1.33;;
18702;SDS011;9481;48.796;9.210;2023-02-26T03:08:21;3.87;;;1.63;;
18702;SDS011;9481;48.796;9.210;2023-02-26T03:10:52;3.27;;;1.47;;
18702;SDS011;9481;48.796;9.210;2023-02-26T03:13:19;4.40;;;1.50;;
18702;SDS011;9481;48.796;9.210;2023-02-26T03:15:59;4.00;;;1.70;;
18702;SDS011;9481;48.796;9.210;2023-02-26T03:24:45;2.33;;;1.50;;
18702;SDS011;9481;48.796;9.210;2023-02-26T03:27:30;3.33;;;1.53;;
18702;SDS011;9481;48.796;9.210;2023-02-26T03:30:06;4.27;;;1.80;;
18702;SDS011;9481;48.796;9.210;2023-02-26T03:32:42;3.97;;;1.63;;
18702;SDS011;9481;48.796;9.210;2023-02-26T03:35:34;2.33;;;1.47;;
18702;SDS011;9481;48.796;9.210;2023-02-26T03:38:16;3.43;;;1.50;;
18702;SDS011;9481;48.796;9.210;2023-02-26T03:41:13;3.07;;;1.53;;
18702;SDS011;9481;48.796;9.210;2023-02-26T03:43:50;2.70;;;1.40;;
18702;SDS011;9481;48.796;9.210;2023-02-26T03:46:29;5.93;;;1.40;;
18702;SDS011;9481;48.796;9.210;2023-02-26T03:49:05;3.10;;;1.53;;
18702;SDS011;9481;48.796;9.210;2023-02-26T03:51:36;3.00;;;1.40;;
18702;SDS011;9481;48.796;9.210;2023-02-26T03:54:07;2.67;;;1.53;;
18702;SDS011;9481;48.796;9.210;2023-02-26T03:56:44;4.63;;;1.70;;
18702;SDS011;9481;48.796;9.210;2023-02-26T03:59:12;3.87;;;1.50;;
18702;SDS011;9481;48.796;9.210;2023-02-26T04:02:00;1.47;;;1.20;;
18702;SDS011;9481;48.796;9.210;2023-02-26T04:04:34;3.97;;;1.60;;
18702;SDS011;9481;48.796;9.210;2023-02-26T04:07:11;3.10;;;1.70;;
18702;SDS011;9481;48.796;9.210;2023-02-26T04:09:40;3.53;;;1.67;;
18702;SDS011;9481;48.796;9.210;2023-02-26T04:12:08;3.60;;;1.70;;
18702;SDS011;9481;48.796;9.210;2023-02-26T04:14:34;3.67;;;1.60;;
18702;SDS011;9481;48.796;9.210;2023-02-26T04:17:00;2.70;;;1.30;;
18702;SDS011;9481;48.796;9.210;2023-02-26T04:19:26;3.60;;;1.40;;
18702;SDS011;9481;48.796;9.210;2023-02-26T04:21:51;4.17;;;1.60;;
18702;SDS011;9481;48.796;9.210;2023-02-26T04:24:17;2.73;;;1.60;;
18702;SDS011;9481;48.796;9.210;2023-02-26T04:26:43;3.30;;;1.60;;
18702;SDS011;9481;48.796;9.210;2023-02-26T04:29:08;2.63;;;1.30;;
18702;SDS011;9481;48.796;9.210;2023-02-26T04:31:34;3.03;;;1.50;;
18702;SDS011;9481;48.796;9.210;2023-02-26T04:33:59;4.03;;;1.70;;
18702;SDS011;9481;48.796;9.210;2023-02-26T04:36:25;4.83;;;1.70;;
18702;SDS011;9481;48.796;9.210;2023-02-26T04:38:51;2.67;;;1.57;;
18702;SDS011;9481;48.796;9.210;2023-02-26T04:41:17;3.73;;;1.60;;
18702;SDS011;9481;48.796;9.210;2023-02-26T04:43:42;2.80;;;1.70;;
18702;SDS011;9481;48.796;9.210;2023-02-26T04:46:08;2.07;;;1.30;;
18702;SDS011;9481;48.796;9.210;2023-02-26T04:48:34;3.57;;;1.60;;
18702;SDS011;9481;48.796;9.210;2023-02-26T04:50:59;2.90;;;1.70;;
18702;SDS011;9481;48.796;9.210;2023-02-26T04:53:25;3.70;;;1.63;;
18702;SDS011;9481;48.796;9.210;2023-02-26T04:55:51;2.33;;;1.53;;
18702;SDS011;9481;48.796;9.210;2023-02-26T04:58:16;4.23;;;1.87;;
18702;SDS011;9481;48.796;9.210;2023-02-26T05:00:42;3.23;;;1.70;;
18702;SDS011;9481;48.796;9.210;2023-02-26T05:03:12;5.00;;;1.80;;
18702;SDS011;9481;48.796;9.210;2023-02-26T05:05:37;4.33;;;1.60;;
18702;SDS011;9481;48.796;9.210;2023-02-26T05:08:03;3.00;;;1.73;;
18702;SDS011;9481;48.796;9.210;2023-02-26T05:10:29;3.80;;;1.77;;
18702;SDS011;9481;48.796;9.210;2023-02-26T05:12:56;3.23;;;1.60;;
18702;SDS011;9481;48.796;9.210;2023-02-26T05:15:22;3.97;;;1.70;;
18702;SDS011;9481;48.796;9.210;2023-02-26T05:17:48;4.33;;;1.60;;
18702;SDS011;9481;48.796;9.210;2023-02-26T05:20:14;3.77;;;1.80;;
18702;SDS011;9481;48.796;9.210;2023-02-26T05:22:39;6.57;;;1.80;;
18702;SDS011;9481;48.796;9.210;2023-02-26T05:25:06;3.73;;;1.80;;
18702;SDS011;9481;48.796;9.210;2023-02-26T05:27:33;4.47;;;1.70;;
18702;SDS011;9481;48.796;9.210;2023-02-26T05:29:59;3.53;;;1.63;;
18702;SDS011;9481;48.796;9.210;2023-02-26T05:32:25;2.27;;;1.53;;
18702;SDS011;9481;48.796;9.210;2023-02-26T05:34:51;4.60;;;1.83;;
18702;SDS011;9481;48.796;9.210;2023-02-26T05:37:17;2.90;;;1.60;;
18702;SDS011;9481;48.796;9.210;2023-02-26T05:39:42;2.57;;;1.50;;
18702;SDS011;9481;48.796;9.210;2023-02-26T05:42:08;4.10;;;1.70;;
18702;SDS011;9481;48.796;9.210;2023-02-26T05:44:34;3.73;;;1.60;;
18702;SDS011;9481;48.796;9.210;2023-02-26T05:47:00;2.67;;;1.50;;
18702;SDS011;9481;48.796;9.210;2023-02-26T05:49:26;2.70;;;1.60;;
18702;SDS011;9481;48.796;9.210;2023-02-26T05:51:52;2.13;;;1.67;;
18702;SDS011;9481;48.796;9.210;2023-02-26T05:54:18;3.10;;;1.90;;
18702;SDS011;9481;48.796;9.210;2023-02-26T05:56:44;3.83;;;1.43;;
18702;SDS011;9481;48.796;9.210;2023-02-26T05:59:10;3.43;;;1.70;;
18702;SDS011;9481;48.796;9.210;2023-02-26T06:01:35;3.80;;;1.53;;
18702;SDS011;9481;48.796;9.210;2023-02-26T06:04:02;4.80;;;1.50;;
18702;SDS011;9481;48.796;9.210;2023-02-26T06:06:29;3.57;;;1.50;;
18702;SDS011;9481;48.796;9.210;2023-02-26T06:08:56;3.83;;;1.80;;
18702;SDS011;9481;48.796;9.210;2023-02-26T06:11:22;2.90;;;1.30;;
18702;SDS011;9481;48.796;9.210;2023-02-26T06:13:48;2.40;;;1.63;;
18702;SDS011;9481;48.796;9.210;2023-02-26T06:16:14;3.13;;;1.70;;
18702;SDS011;9481;48.796;9.210;2023-02-26T06:18:40;4.20;;;1.70;;
18702;SDS011;9481;48.796;9.210;2023-02-26T06:21:05;3.27;;;1.80;;
18702;SDS011;9481;48.796;9.210;2023-02-26T06:23:31;3.13;;;1.63;;
18702;SDS011;9481;48.796;9.210;2023-02-26T06:25:57;6.50;;;1.90;;
18702;SDS011;9481;48.796;9.210;2023-02-26T06:28:23;3.87;;;1.60;;
18702;SDS011;9481;48.796;9.210;2023-02-26T06:30:53;3.27;;;1.60;;
18702;SDS011;9481;48.796;9.210;2023-02-26T06:33:19;2.80;;;1.37;;
18702;SDS011;9481;48.796;9.210;2023-02-26T06:35:45;6.20;;;1.73;;
18702;SDS011;9481;48.796;9.210;2023-02-26T06:38:11;3.10;;;1.50;;
18702;SDS011;9481;48.796;9.210;2023-02-26T06:40:37;5.33;;;1.60;;
18702;SDS011;9481;48.796;9.210;2023-02-26T06:43:03;3.37;;;1.23;;
18702;SDS011;9481;48.796;9.210;2023-02-26T06:45:30;5.83;;;1.77;;
18702;SDS011;9481;48.796;9.210;2023-02-26T06:47:56;4.10;;;1.60;;
18702;SDS011;9481;48.796;9.210;2023-02-26T06:50:22;3.77;;;1.50;;
18702;SDS011;9481;48.796;9.210;2023-02-26T06:52:47;4.60;;;1.83;;
18702;SDS011;9481;48.796;9.210;2023-02-26T06:55:13;2.50;;;1.40;;
18702;SDS011;9481;48.796;9.210;2023-02-26T06:57:39;2.27;;;1.50;;
18702;SDS011;9481;48.796;9.210;2023-02-26T07:00:05;2.97;;;1.60;;
18702;SDS011;9481;48.796;9.210;2023-02-26T07:02:31;3.97;;;1.37;;
18702;SDS011;9481;48.796;9.210;2023-02-26T07:04:58;3.10;;;1.63;;
18702;SDS011;9481;48.796;9.210;2023-02-26T07:07:23;2.73;;;1.53;;
18702;SDS011;9481;48.796;9.210;2023-02-26T07:09:49;3.63;;;2.00;;
18702;SDS011;9481;48.796;9.210;2023-02-26T07:12:15;3.50;;;1.77;;
18702;SDS011;9481;48.796;9.210;2023-02-26T07:14:41;3.63;;;1.70;;
18702;SDS011;9481;48.796;9.210;2023-02-26T07:17:07;3.33;;;2.00;;
18702;SDS011;9481;48.796;9.210;2023-02-26T07:19:34;4.83;;;1.70;;
18702;SDS011;9481;48.796;9.210;2023-02-26T07:22:00;4.90;;;1.77;;
18702;SDS011;9481;48.796;9.210;2023-02-26T07:24:25;6.50;;;1.73;;
18702;SDS011;9481;48.796;9.210;2023-02-26T07:26:51;2.23;;;1.40;;
18702;SDS011;9481;48.796;9.210;2023-02-26T07:29:17;5.50;;;1.60;;
18702;SDS011;9481;48.796;9.210;2023-02-26T07:31:42;4.73;;;1.73;;
18702;SDS011;9481;48.796;9.210;2023-02-26T07:34:08;5.03;;;1.80;;
18702;SDS011;9481;48.796;9.210;2023-02-26T07:36:34;3.23;;;1.53;;
18702;SDS011;9481;48.796;9.210;2023-02-26T07:39:00;3.33;;;1.73;;
18702;SDS011;9481;48.796;9.210;2023-02-26T07:41:25;2.77;;;1.63;;
18702;SDS011;9481;48.796;9.210;2023-02-26T07:43:51;4.60;;;1.70;;
18702;SDS011;9481;48.796;9.210;2023-02-26T07:46:16;5.80;;;1.80;;
18702;SDS011;9481;48.796;9.210;2023-02-26T07:48:42;3.43;;;2.00;;
18702;SDS011;9481;48.796;9.210;2023-02-26T07:51:08;4.10;;;1.50;;
18702;SDS011;9481;48.796;9.210;2023-02-26T07:53:35;4.10;;;1.80;;
18702;SDS011;9481;48.796;9.210;2023-02-26T07:56:01;3.83;;;1.50;;
18702;SDS011;9481;48.796;9.210;2023-02-26T07:58:28;2.10;;;1.47;;
18702;SDS011;9481;48.796;9.210;2023-02-26T08:00:53;3.93;;;1.50;;
18702;SDS011;9481;48.796;9.210;2023-02-26T08:03:19;2.80;;;1.60;;
18702;SDS011;9481;48.796;9.210;2023-02-26T08:05:45;3.83;;;1.40;;
18702;SDS011;9481;48.796;9.210;2023-02-26T08:08:11;3.80;;;1.43;;
18702;SDS011;9481;48.796;9.210;2023-02-26T08:10:37;5.20;;;1.73;;
18702;SDS011;9481;48.796;9.210;2023-02-26T08:13:05;4.67;;;1.40;;
18702;SDS011;9481;48.796;9.210;2023-02-26T08:15:31;3.17;;;1.40;;
18702;SDS011;9481;48.796;9.210;2023-02-26T08:17:57;3.50;;;1.60;;
18702;SDS011;9481;48.796;9.210;2023-02-26T08:20:22;2.77;;;1.50;;
18702;SDS011;9481;48.796;9.210;2023-02-26T08:22:51;2.53;;;1.33;;
18702;SDS011;9481;48.796;9.210;2023-02-26T08:25:17;3.17;;;1.40;;
18702;SDS011;9481;48.796;9.210;2023-02-26T08:27:43;4.70;;;1.50;;
18702;SDS011;9481;48.796;9.210;2023-02-26T08:30:08;3.57;;;1.40;;
18702;SDS011;9481;48.796;9.210;2023-02-26T08:32:35;2.83;;;1.30;;
18702;SDS011;9481;48.796;9.210;2023-02-26T08:35:03;3.37;;;1.40;;
18702;SDS011;9481;48.796;9.210;2023-02-26T08:37:30;4.50;;;1.70;;
18702;SDS011;9481;48.796;9.210;2023-02-26T08:39:56;4.97;;;1.83;;
18702;SDS011;9481;48.796;9.210;2023-02-26T08:42:22;6.43;;;1.63;;
18702;SDS011;9481;48.796;9.210;2023-02-26T08:44:48;3.10;;;1.50;;
18702;SDS011;9481;48.796;9.210;2023-02-26T08:47:13;6.30;;;1.70;;
18702;SDS011;9481;48.796;9.210;2023-02-26T08:49:39;3.57;;;1.60;;
18702;SDS011;9481;48.796;9.210;2023-02-26T08:52:05;2.73;;;1.40;;
18702;SDS011;9481;48.796;9.210;2023-02-26T08:54:31;3.03;;;1.43;;
18702;SDS011;9481;48.796;9.210;2023-02-26T08:56:56;3.87;;;1.50;;
18702;SDS011;9481;48.796;9.210;2023-02-26T08:59:23;3.27;;;1.50;;
18702;SDS011;9481;48.796;9.210;2023-02-26T09:01:49;5.70;;;1.67;;
18702;SDS011;9481;48.796;9.210;2023-02-26T09:04:15;3.97;;;1.60;;
18702;SDS011;9481;48.796;9.210;2023-02-26T09:06:41;4.27;;;1.27;;
18702;SDS011;9481;48.796;9.210;2023-02-26T09:09:07;2.27;;;1.17;;
18702;SDS011;9481;48.796;9.210;2023-02-26T09:11:33;2.47;;;1.30;;
18702;SDS011;9481;48.796;9.210;2023-02-26T09:14:00;1.83;;;1.20;;
18702;SDS011;9481;48.796;9.210;2023-02-26T09:16:27;5.13;;;1.63;;
18702;SDS011;9481;48.796;9.210;2023-02-26T09:18:54;2.57;;;1.27;;
18702;SDS011;9481;48.796;9.210;2023-02-26T09:21:21;2.57;;;1.10;;
18702;SDS011;9481;48.796;9.210;2023-02-26T09:23:47;2.73;;;1.20;;
18702;SDS011;9481;48.796;9.210;2023-02-26T09:26:13;1.70;;;1.10;;
18702;SDS011;9481;48.796;9.210;2023-02-26T09:28:39;2.73;;;1.23;;
18702;SDS011;9481;48.796;9.210;2023-02-26T09:31:05;2.30;;;1.40;;
18702;SDS011;9481;48.796;9.210;2023-02-26T09:33:31;2.60;;;1.10;;
18702;SDS011;9481;48.796;9.210;2023-02-26T09:35:57;3.30;;;1.10;;
18702;SDS011;9481;48.796;9.210;2023-02-26T09:38:23;1.10;;;1.00;;
18702;SDS011;9481;48.796;9.210;2023-02-26T09:43:48;3.27;;;1.20;;
18702;SDS011;9481;48.796;9.210;2023-02-26T09:46:25;1.60;;;1.00;;
18702;SDS011;9481;48.796;9.210;2023-02-26T09:49:16;1.40;;;1.10;;
18702;SDS011;9481;48.796;9.210;2023-02-26T09:51:53;4.27;;;1.03;;
18702;SDS011;9481;48.796;9.210;2023-02-26T09:54:27;2.63;;;1.40;;
18702;SDS011;9481;48.796;9.210;2023-02-26T09:57:04;1.37;;;1.20;;
18702;SDS011;9481;48.796;9.210;2023-02-26T09:59:37;2.47;;;1.20;;
18702;SDS011;9481;48.796;9.210;2023-02-26T10:02:12;1.30;;;1.20;;
18702;SDS011;9481;48.796;9.210;2023-02-26T10:10:53;1.97;;;1.10;;
18702;SDS011;9481;48.796;9.210;2023-02-26T10:13:42;3.30;;;1.03;;
18702;SDS011;9481;48.796;9.210;2023-02-26T10:16:23;1.53;;;1.10;;
18702;SDS011;9481;48.796;9.210;2023-02-26T10:18:57;1.87;;;1.13;;
18702;SDS011;9481;48.796;9.210;2023-02-26T10:24:26;2.43;;;1.17;;
18702;SDS011;9481;48.796;9.210;2023-02-26T10:27:13;1.97;;;1.00;;
18702;SDS011;9481;48.796;9.210;2023-02-26T10:29:59;2.00;;;0.90;;
18702;SDS011;9481;48.796;9.210;2023-02-26T10:32:49;1.53;;;0.90;;
18702;SDS011;9481;48.796;9.210;2023-02-26T10:35:26;2.77;;;1.20;;
18702;SDS011;9481;48.796;9.210;2023-02-26T10:37:58;2.60;;;0.97;;
18702;SDS011;9481;48.796;9.210;2023-02-26T10:40:46;1.83;;;0.90;;
18702;SDS011;9481;48.796;9.210;2023-02-26T10:49:18;1.23;;;0.83;;
18702;SDS011;9481;48.796;9.210;2023-02-26T10:52:10;3.10;;;1.10;;
18702;SDS011;9481;48.796;9.210;2023-02-26T10:54:54;1.23;;;0.83;;
18702;SDS011;9481;48.796;9.210;2023-02-26T10:58:08;1.77;;;0.93;;
18702;SDS011;9481;48.796;9.210;2023-02-26T11:00:43;6.07;;;1.10;;
18702;SDS011;9481;48.796;9.210;2023-02-26T11:03:20;1.63;;;0.93;;
18702;SDS011;9481;48.796;9.210;2023-02-26T11:05:51;1.63;;;1.10;;
18702;SDS011;9481;48.796;9.210;2023-02-26T11:10:51;2.80;;;1.00;;
18702;SDS011;9481;48.796;9.210;2023-02-26T11:13:23;1.67;;;1.00;;
18702;SDS011;9481;48.796;9.210;2023-02-26T11:15:55;2.40;;;1.20;;
18702;SDS011;9481;48.796;9.210;2023-02-26T11:18:30;1.87;;;1.17;;
18702;SDS011;9481;48.796;9.210;2023-02-26T11:21:08;1.90;;;1.50;;
18702;SDS011;9481;48.796;9.210;2023-02-26T11:23:43;1.97;;;1.10;;
18702;SDS011;9481;48.796;9.210;2023-02-26T11:26:17;2.00;;;1.10;;
18702;SDS011;9481;48.796;9.210;2023-02-26T11:28:52;2.73;;;1.30;;
18702;SDS011;9481;48.796;9.210;2023-02-26T11:31:20;1.53;;;0.80;;
18702;SDS011;9481;48.796;9.210;2023-02-26T11:33:50;1.93;;;1.07;;
18702;SDS011;9481;48.796;9.210;2023-02-26T11:36:21;1.00;;;0.90;;
18702;SDS011;9481;48.796;9.210;2023-02-26T11:38:54;1.57;;;1.03;;
18702;SDS011;9481;48.796;9.210;2023-02-26T11:41:24;1.03;;;0.93;;
18702;SDS011;9481;48.796;9.210;2023-02-26T11:43:57;0.80;;;0.80;;
18702;SDS011;9481;48.796;9.210;2023-02-26T11:46:37;1.13;;;1.00;;
18702;SDS011;9481;48.796;9.210;2023-02-26T11:49:09;2.07;;;1.00;;
18702;SDS011;9481;48.796;9.210;2023-02-26T11:51:41;1.77;;;1.20;;
18702;SDS011;9481;48.796;9.210;2023-02-26T11:54:23;1.27;;;1.00;;
18702;SDS011;9481;48.796;9.210;2023-02-26T11:56:59;0.90;;;0.80;;
18702;SDS011;9481;48.796;9.210;2023-02-26T11:59:30;3.27;;;1.10;;
18702;SDS011;9481;48.796;9.210;2023-02-26T12:02:00;2.57;;;0.93;;
18702;SDS011;9481;48.796;9.210;2023-02-26T12:04:37;1.27;;;0.90;;
18702;SDS011;9481;48.796;9.210;2023-02-26T12:07:08;1.40;;;0.90;;
18702;SDS011;9481;48.796;9.210;2023-02-26T12:09:41;2.40;;;0.97;;
18702;SDS011;9481;48.796;9.210;2023-02-26T12:15:05;1.27;;;1.10;;
18702;SDS011;9481;48.796;9.210;2023-02-26T12:21:30;1.07;;;0.80;;
18702;SDS011;9481;48.796;9.210;2023-02-26T12:24:26;1.10;;;1.00;;
18702;SDS011;9481;48.796;9.210;2023-02-26T12:30:42;1.10;;;1.00;;
18702;SDS011;9481;48.796;9.210;2023-02-26T12:33:51;0.93;;;0.87;;
18702;SDS011;9481;48.796;9.210;2023-02-26T12:51:01;0.80;;;0.80;;
18702;SDS011;9481;48.796;9.210;2023-02-26T12:57:01;1.03;;;0.90;;
18702;SDS011;9481;48.796;9.210;2023-02-26T13:05:26;0.93;;;0.70;;
18702;SDS011;9481;48.796;9.210;2023-02-26T13:08:37;1.13;;;0.90;;
18702;SDS011;9481;48.796;9.210;2023-02-26T13:17:02;1.83;;;0.80;;
18702;SDS011;9481;48.796;9.210;2023-02-26T13:19:54;1.03;;;0.97;;
18702;SDS011;9481;48.796;9.210;2023-02-26T13:22:29;0.97;;;0.90;;
18702;SDS011;9481;48.796;9.210;2023-02-26T13:25:08;0.80;;;0.80;;
18702;SDS011;9481;48.796;9.210;2023-02-26T13:28:08;1.27;;;1.00;;
18702;SDS011;9481;48.796;9.210;2023-02-26T13:30:53;1.83;;;0.77;;
18702;SDS011;9481;48.796;9.210;2023-02-26T13:33:24;0.90;;;0.80;;
18702;SDS011;9481;48.796;9.210;2023-02-26T13:35:56;1.03;;;0.80;;
18702;SDS011;9481;48.796;9.210;2023-02-26T13:38:42;1.23;;;0.80;;
18702;SDS011;9481;48.796;9.210;2023-02-26T13:41:34;1.00;;;0.70;;
18702;SDS011;9481;48.796;9.210;2023-02-26T13:47:59;0.70;;;0.70;;
18702;SDS011;9481;48.796;9.210;2023-02-26T14:02:53;1.43;;;0.60;;
18702;SDS011;9481;48.796;9.210;2023-02-26T14:11:04;0.90;;;0.70;;
18702;SDS011;9481;48.796;9.210;2023-02-26T14:13:42;1.10;;;0.60;;
18702;SDS011;9481;48.796;9.210;2023-02-26T14:16:42;0.73;;;0.73;;
18702;SDS011;9481;48.796;9.210;2023-02-26T14:19:25;0.77;;;0.60;;
18702;SDS011;9481;48.796;9.210;2023-02-26T14:22:19;0.80;;;0.60;;
18702;SDS011;9481;48.796;9.210;2023-02-26T14:25:04;0.80;;;0.70;;
18702;SDS011;9481;48.796;9.210;2023-02-26T14:30:50;0.93;;;0.70;;
18702;SDS011;9481;48.796;9.210;2023-02-26T14:36:34;0.60;;;0.60;;
18702;SDS011;9481;48.796;9.210;2023-02-26T14:39:07;1.40;;;0.70;;
18702;SDS011;9481;48.796;9.210;2023-02-26T14:42:03;0.77;;;0.70;;
18702;SDS011;9481;48.796;9.210;2023-02-26T14:44:40;0.97;;;0.67;;
18702;SDS011;9481;48.796;9.210;2023-02-26T14:47:10;0.73;;;0.73;;
18702;SDS011;9481;48.796;9.210;2023-02-26T14:49:38;1.70;;;0.80;;
18702;SDS011;9481;48.796;9.210;2023-02-26T14:52:18;1.10;;;0.90;;
18702;SDS011;9481;48.796;9.210;2023-02-26T15:01:01;0.50;;;0.50;;
18702;SDS011;9481;48.796;9.210;2023-02-26T15:06:42;0.73;;;0.60;;
18702;SDS011;9481;48.796;9.210;2023-02-26T15:21:22;1.30;;;0.60;;
18702;SDS011;9481;48.796;9.210;2023-02-26T15:23:58;1.90;;;0.60;;
18702;SDS011;9481;48.796;9.210;2023-02-26T15:26:26;0.70;;;0.60;;
18702;SDS011;9481;48.796;9.210;2023-02-26T15:28:57;1.77;;;0.70;;
18702;SDS011;9481;48.796;9.210;2023-02-26T15:31:29;0.60;;;0.53;;
18702;SDS011;9481;48.796;9.210;2023-02-26T15:34:00;1.03;;;0.67;;
18702;SDS011;9481;48.796;9.210;2023-02-26T15:36:28;1.13;;;0.60;;
18702;SDS011;9481;48.796;9.210;2023-02-26T15:38:56;0.90;;;0.80;;
18702;SDS011;9481;48.796;9.210;2023-02-26T15:41:26;2.00;;;0.90;;
18702;SDS011;9481;48.796;9.210;2023-02-26T15:43:59;1.60;;;0.90;;
18702;SDS011;9481;48.796;9.210;2023-02-26T15:46:35;1.37;;;0.80;;
18702;SDS011;9481;48.796;9.210;2023-02-26T15:51:58;1.27;;;0.80;;
18702;SDS011;9481;48.796;9.210;2023-02-26T15:54:29;0.80;;;0.80;;
18702;SDS011;9481;48.796;9.210;2023-02-26T15:57:04;0.70;;;0.70;;
18702;SDS011;9481;48.796;9.210;2023-02-26T15:59:30;0.67;;;0.67;;
18702;SDS011;9481;48.796;9.210;2023-02-26T16:01:57;1.80;;;0.80;;
18702;SDS011;9481;48.796;9.210;2023-02-26T16:04:26;0.97;;;0.80;;
18702;SDS011;9481;48.796;9.210;2023-02-26T16:06:53;1.23;;;0.70;;
18702;SDS011;9481;48.796;9.210;2023-02-26T16:12:03;1.33;;;0.60;;
18702;SDS011;9481;48.796;9.210;2023-02-26T16:14:41;1.63;;;0.60;;
18702;SDS011;9481;48.796;9.210;2023-02-26T16:17:17;1.00;;;0.80;;
18702;SDS011;9481;48.796;9.210;2023-02-26T16:19:55;0.60;;;0.60;;
18702;SDS011;9481;48.796;9.210;2023-02-26T16:25:14;0.53;;;0.53;;
18702;SDS011;9481;48.796;9.210;2023-02-26T16:28:05;0.40;;;0.40;;
18702;SDS011;9481;48.796;9.210;2023-02-26T16:30:43;2.60;;;1.00;;
18702;SDS011;9481;48.796;9.210;2023-02-26T16:33:15;1.43;;;0.53;;
18702;SDS011;9481;48.796;9.210;2023-02-26T16:35:45;1.00;;;0.70;;
18702;SDS011;9481;48.796;9.210;2023-02-26T16:38:23;0.93;;;0.70;;
18702;SDS011;9481;48.796;9.210;2023-02-26T16:41:07;1.33;;;0.83;;
18702;SDS011;9481;48.796;9.210;2023-02-26T16:46:20;0.83;;;0.70;;
18702;SDS011;9481;48.796;9.210;2023-02-26T16:49:16;0.70;;;0.70;;
18702;SDS011;9481;48.796;9.210;2023-02-26T16:51:47;1.10;;;0.70;;
18702;SDS011;9481;48.796;9.210;2023-02-26T16:54:29;0.60;;;0.60;;
18702;SDS011;9481;48.796;9.210;2023-02-26T16:57:34;0.87;;;0.50;;
18702;SDS011;9481;48.796;9.210;2023-02-26T17:00:10;2.57;;;0.90;;
18702;SDS011;9481;48.796;9.210;2023-02-26T17:02:53;0.73;;;0.50;;
18702;SDS011;9481;48.796;9.210;2023-02-26T17:05:24;2.03;;;0.87;;
18702;SDS011;9481;48.796;9.210;2023-02-26T17:07:56;0.70;;;0.60;;
18702;SDS011;9481;48.796;9.210;2023-02-26T17:10:54;1.20;;;0.70;;
18702;SDS011;9481;48.796;9.210;2023-02-26T17:13:26;0.73;;;0.60;;
18702;SDS011;9481;48.796;9.210;2023-02-26T17:16:03;2.60;;;0.60;;
18702;SDS011;9481;48.796;9.210;2023-02-26T17:18:32;1.13;;;0.80;;
18702;SDS011;9481;48.796;9.210;2023-02-26T17:20:58;1.10;;;0.70;;
18702;SDS011;9481;48.796;9.210;2023-02-26T17:23:29;0.83;;;0.67;;
18702;SDS011;9481;48.796;9.210;2023-02-26T17:26:01;1.43;;;0.80;;
18702;SDS011;9481;48.796;9.210;2023-02-26T17:28:32;1.03;;;0.70;;
18702;SDS011;9481;48.796;9.210;2023-02-26T17:31:05;1.30;;;0.80;;
18702;SDS011;9481;48.796;9.210;2023-02-26T17:33:32;0.80;;;0.60;;
18702;SDS011;9481;48.796;9.210;2023-02-26T17:35:58;0.73;;;0.50;;
18702;SDS011;9481;48.796;9.210;2023-02-26T17:38:26;0.53;;;0.53;;
18702;SDS011;9481;48.796;9.210;2023-02-26T17:40:53;1.23;;;0.60;;
18702;SDS011;9481;48.796;9.210;2023-02-26T17:43:22;1.10;;;0.80;;
18702;SDS011;9481;48.796;9.210;2023-02-26T17:45:47;1.73;;;1.00;;
18702;SDS011;9481;48.796;9.210;2023-02-26T17:48:13;2.27;;;0.80;;
18702;SDS011;9481;48.796;9.210;2023-02-26T17:50:42;2.37;;;0.73;;
18702;SDS011;9481;48.796;9.210;2023-02-26T17:53:17;1.13;;;0.70;;
18702;SDS011;9481;48.796;9.210;2023-02-26T17:55:45;0.93;;;0.80;;
18702;SDS011;9481;48.796;9.210;2023-02-26T17:58:14;1.60;;;0.70;;
18702;SDS011;9481;48.796;9.210;2023-02-26T18:00:49;0.83;;;0.60;;
18702;SDS011;9481;48.796;9.210;2023-02-26T18:03:17;1.00;;;0.70;;
18702;SDS011;9481;48.796;9.210;2023-02-26T18:05:44;1.37;;;0.90;;
18702;SDS011;9481;48.796;9.210;2023-02-26T18:08:22;1.27;;;0.60;;
18702;SDS011;9481;48.796;9.210;2023-02-26T18:10:51;2.83;;;0.90;;